createdAt,value
2022-12-23T00:00:29.724Z,99628.97
2022-12-23T00:02:56.610Z,99633.00
2022-12-23T00:05:23.526Z,99648.75
2022-12-23T00:07:50.184Z,99634.44
2022-12-23T00:10:17.095Z,99631.72
2022-12-23T00:13:02.065Z,99623.00
2022-12-23T00:15:28.818Z,99615.59
2022-12-23T00:17:55.550Z,99613.53
2022-12-23T00:20:22.252Z,99617.38
2022-12-23T00:23:06.850Z,99626.84
2022-12-23T00:25:41.177Z,99636.81
2022-12-23T00:28:12.598Z,99632.34
2022-12-23T00:30:52.779Z,99629.94
2022-12-23T00:33:24.537Z,99643.44
2022-12-23T00:35:52.184Z,99646.03
2022-12-23T00:38:38.868Z,99651.34
2022-12-23T00:41:27.478Z,99641.06
2022-12-23T00:43:54.092Z,99639.16
2022-12-23T00:46:20.785Z,99634.16
2022-12-23T00:49:05.637Z,99622.59
2022-12-23T00:51:32.343Z,99612.66
2022-12-23T00:53:59.007Z,99608.16
2022-12-23T00:56:25.648Z,99594.50
2022-12-23T00:58:52.293Z,99594.03
2022-12-23T01:01:37.670Z,99588.56
2022-12-23T01:04:23.376Z,99574.72
2022-12-23T01:06:50.126Z,99584.06
2022-12-23T01:09:16.983Z,99582.13
2022-12-23T01:11:43.641Z,99562.50
2022-12-23T01:14:11.629Z,99564.13
2022-12-23T01:16:39.101Z,99561.88
2022-12-23T01:19:07.292Z,99548.22
2022-12-23T01:21:34.609Z,99540.66
2022-12-23T01:24:01.635Z,99529.09
2022-12-23T01:26:28.519Z,99525.88
2022-12-23T01:28:57.086Z,99521.53
2022-12-23T01:31:25.924Z,99528.78
2022-12-23T01:33:53.545Z,99519.13
2022-12-23T01:36:21.354Z,99514.63
2022-12-23T01:38:48.378Z,99525.06
2022-12-23T01:41:37.195Z,99519.44
2022-12-23T01:44:24.013Z,99517.84
2022-12-23T01:46:50.791Z,99501.44
2022-12-23T01:49:17.586Z,99495.84
2022-12-23T01:51:44.372Z,99497.59
2022-12-23T01:54:11.052Z,99515.41
2022-12-23T01:56:39.947Z,99506.13
2022-12-23T01:59:10.126Z,99510.63
2022-12-23T02:01:55.758Z,99505.63
2022-12-23T02:04:24.904Z,99485.72
2022-12-23T02:07:10.439Z,99496.63
2022-12-23T02:09:40.972Z,99498.88
2022-12-23T02:12:21.658Z,99499.69
2022-12-23T02:15:07.034Z,99501.63
2022-12-23T02:17:54.717Z,99501.63
2022-12-23T02:20:24.002Z,99506.25
2022-12-23T02:22:59.884Z,99497.25
2022-12-23T02:25:38.639Z,99513.66
2022-12-23T02:28:36.884Z,99501.63
2022-12-23T02:31:12.540Z,99496.47
2022-12-23T02:34:11.628Z,99499.22
2022-12-23T02:36:51.580Z,99500.66
2022-12-23T02:39:46.014Z,99489.75
2022-12-23T02:42:20.486Z,99474.78
2022-12-23T02:44:53.307Z,99469.94
2022-12-23T02:47:27.931Z,99458.53
2022-12-23T02:50:02.836Z,99455.28
2022-12-23T02:52:32.831Z,99437.59
2022-12-23T02:55:05.635Z,99423.44
2022-12-23T02:57:37.249Z,99416.19
2022-12-23T03:00:05.747Z,99407.81
2022-12-23T03:02:37.472Z,99408.75
2022-12-23T03:05:04.743Z,99406.97
2022-12-23T03:07:36.760Z,99397.78
2022-12-23T03:10:40.233Z,99387.00
2022-12-23T03:13:34.792Z,99401.63
2022-12-23T03:16:20.791Z,99400.94
2022-12-23T03:19:32.528Z,99377.59
2022-12-23T03:22:21.875Z,99376.94
2022-12-23T03:24:48.531Z,99373.56
2022-12-23T03:27:31.317Z,99363.88
2022-12-23T03:30:09.445Z,99354.69
2022-12-23T03:32:43.951Z,99350.97
2022-12-23T03:35:16.299Z,99348.69
2022-12-23T03:37:44.975Z,99347.88
2022-12-23T03:40:20.816Z,99340.03
2022-12-23T03:42:52.373Z,99339.38
2022-12-23T03:45:41.548Z,99333.69
2022-12-23T03:48:21.738Z,99322.56
2022-12-23T03:50:56.115Z,99322.00
2022-12-23T03:53:31.151Z,99319.41
2022-12-23T03:56:09.355Z,99310.19
2022-12-23T03:58:44.998Z,99303.25
2022-12-23T04:01:39.652Z,99301.44
2022-12-23T04:04:22.292Z,99287.09
2022-12-23T04:06:58.329Z,99281.41
2022-12-23T04:09:28.020Z,99271.38
2022-12-23T04:11:55.586Z,99277.81
2022-12-23T04:14:22.734Z,99275.53
2022-12-23T04:16:56.131Z,99268.56
2022-12-23T04:19:23.038Z,99246.31
2022-12-23T04:21:49.933Z,99244.50
2022-12-23T04:24:16.627Z,99239.19
2022-12-23T04:26:43.265Z,99240.88
2022-12-23T04:29:10.024Z,99234.38
2022-12-23T04:31:36.871Z,99221.63
2022-12-23T04:34:03.691Z,99220.16
2022-12-23T04:36:30.748Z,99215.25
2022-12-23T04:38:57.500Z,99212.59
2022-12-23T04:41:24.446Z,99208.88
2022-12-23T04:43:53.250Z,99192.53
2022-12-23T04:46:20.554Z,99192.78
2022-12-23T04:48:47.252Z,99190.59
2022-12-23T04:51:13.996Z,99181.34
2022-12-23T04:53:40.637Z,99179.19
2022-12-23T04:56:07.337Z,99166.03
2022-12-23T04:58:34.064Z,99159.16
2022-12-23T05:01:05.957Z,99140.66
2022-12-23T05:03:32.866Z,99146.91
2022-12-23T05:06:00.021Z,99152.72
2022-12-23T05:08:26.749Z,99139.19
2022-12-23T05:10:53.402Z,99144.91
2022-12-23T05:13:20.411Z,99132.97
2022-12-23T05:15:50.236Z,99125.84
2022-12-23T05:18:17.139Z,99118.25
2022-12-23T05:20:44.152Z,99123.47
2022-12-23T05:23:11.163Z,99109.06
2022-12-23T05:25:39.160Z,99102.44
2022-12-23T05:28:08.002Z,99085.69
2022-12-23T05:30:34.693Z,99085.44
2022-12-23T05:33:01.426Z,99078.44
2022-12-23T05:35:28.427Z,99074.19
2022-12-23T05:37:55.158Z,99071.59
2022-12-23T05:40:26.519Z,99081.19
2022-12-23T05:42:55.812Z,99065.28
2022-12-23T05:45:22.860Z,99060.59
2022-12-23T05:47:49.510Z,99061.81
2022-12-23T05:50:16.180Z,99056.41
2022-12-23T05:52:42.806Z,99048.69
2022-12-23T05:55:09.660Z,99042.84
2022-12-23T05:57:36.300Z,99035.84
2022-12-23T06:00:04.274Z,99028.84
2022-12-23T06:02:31.136Z,99024.91
2022-12-23T06:04:58.167Z,99026.97
2022-12-23T06:07:24.799Z,99017.19
2022-12-23T06:09:51.591Z,99018.00
2022-12-23T06:12:18.278Z,99018.09
2022-12-23T06:14:44.933Z,99005.59
2022-12-23T06:17:11.555Z,98997.78
2022-12-23T06:19:38.143Z,98989.97
2022-12-23T06:22:04.836Z,98975.09
2022-12-23T06:24:31.576Z,98968.88
2022-12-23T06:26:58.260Z,98959.44
2022-12-23T06:29:25.451Z,98961.06
2022-12-23T06:31:52.253Z,98946.97
2022-12-23T06:34:18.940Z,98951.28
2022-12-23T06:36:45.675Z,98943.47
2022-12-23T06:39:12.399Z,98941.19
2022-12-23T06:41:39.077Z,98931.34
2022-12-23T06:44:06.001Z,98918.41
2022-12-23T06:46:33.075Z,98918.81
2022-12-23T06:48:59.769Z,98920.84
2022-12-23T06:51:26.489Z,98917.31
2022-12-23T06:53:53.338Z,98900.38
2022-12-23T06:56:20.612Z,98901.63
2022-12-23T06:58:47.343Z,98895.75
2022-12-23T07:01:14.188Z,98895.41
2022-12-23T07:03:41.029Z,98893.78
2022-12-23T07:06:08.027Z,98896.97
2022-12-23T07:08:34.702Z,98898.16
2022-12-23T07:11:03.468Z,98884.41
2022-12-23T07:13:31.229Z,98897.03
2022-12-23T07:16:06.185Z,98897.13
2022-12-23T07:18:36.128Z,98905.81
2022-12-23T07:21:03.839Z,98901.91
2022-12-23T07:23:30.766Z,98906.66
2022-12-23T07:25:57.657Z,98916.06
2022-12-23T07:28:24.474Z,98923.53
2022-12-23T07:30:51.560Z,98921.16
2022-12-23T07:33:18.210Z,98930.84
2022-12-23T07:35:44.893Z,98922.59
2022-12-23T07:38:11.596Z,98920.97
2022-12-23T07:40:38.284Z,98911.16
2022-12-23T07:43:05.732Z,98912.69
2022-12-23T07:45:32.554Z,98906.38
2022-12-23T07:48:01.144Z,98892.22
2022-12-23T07:50:28.494Z,98890.63
2022-12-23T07:52:55.238Z,98886.25
2022-12-23T07:55:22.291Z,98885.84
2022-12-23T07:57:50.144Z,98877.16
2022-12-23T08:00:17.486Z,98875.16
2022-12-23T08:02:44.314Z,98874.72
2022-12-23T08:05:12.251Z,98856.63
2022-12-23T08:07:39.632Z,98842.81
2022-12-23T08:10:07.156Z,98836.09
2022-12-23T08:12:34.131Z,98830.53
2022-12-23T08:15:00.745Z,98828.13
2022-12-23T08:17:29.266Z,98826.91
2022-12-23T08:19:56.996Z,98827.28
2022-12-23T08:22:24.668Z,98830.03
2022-12-23T08:24:52.660Z,98829.22
2022-12-23T08:27:19.792Z,98842.16
2022-12-23T08:29:46.503Z,98837.91
2022-12-23T08:32:13.204Z,98835.16
2022-12-23T08:34:39.990Z,98825.34
2022-12-23T08:37:06.747Z,98828.84
2022-12-23T08:39:33.453Z,98823.81
2022-12-23T08:42:00.107Z,98820.28
2022-12-23T08:44:28.146Z,98825.75
2022-12-23T08:46:55.579Z,98820.28
2022-12-23T08:49:22.958Z,98819.91
2022-12-23T08:51:49.789Z,98817.16
2022-12-23T08:54:17.536Z,98810.50
2022-12-23T08:56:44.892Z,98804.22
2022-12-23T08:59:19.291Z,98798.72
2022-12-23T09:01:47.525Z,98795.97
2022-12-23T09:04:14.663Z,98788.16
2022-12-23T09:06:42.833Z,98784.25
2022-12-23T09:09:11.917Z,98780.69
2022-12-23T09:11:39.136Z,98776.00
2022-12-23T09:14:08.602Z,98786.63
2022-12-23T09:16:36.110Z,98767.38
2022-12-23T09:19:03.176Z,98772.88
2022-12-23T09:21:29.999Z,98755.25
2022-12-23T09:23:56.704Z,98746.63
2022-12-23T09:26:26.997Z,98749.03
2022-12-23T09:28:57.520Z,98746.28
2022-12-23T09:31:27.965Z,98741.22
2022-12-23T09:33:59.401Z,98735.38
2022-12-23T09:36:26.024Z,98743.59
2022-12-23T09:38:57.407Z,98741.28
2022-12-23T09:41:24.944Z,98738.88
2022-12-23T09:43:54.478Z,98744.38
2022-12-23T09:46:24.296Z,98747.13
2022-12-23T09:49:13.174Z,98745.97
2022-12-23T09:51:39.881Z,98744.03
2022-12-23T09:54:23.153Z,98745.97
2022-12-23T09:57:15.893Z,98739.69
2022-12-23T09:59:54.523Z,98730.22
2022-12-23T10:02:30.315Z,98733.69
2022-12-23T10:05:09.915Z,98736.44
2022-12-23T10:07:45.914Z,98737.63
2022-12-23T10:10:25.296Z,98744.69
2022-12-23T10:12:53.925Z,98753.72
2022-12-23T10:15:29.995Z,98745.91
2022-12-23T10:18:01.671Z,98742.00
2022-12-23T10:20:44.593Z,98734.97
2022-12-23T10:23:17.149Z,98723.63
2022-12-23T10:25:51.120Z,98718.59
2022-12-23T10:28:18.170Z,98706.47
2022-12-23T10:31:17.188Z,98710.06
2022-12-23T10:33:49.779Z,98710.13
2022-12-23T10:36:28.086Z,98703.91
2022-12-23T10:39:33.207Z,98696.88
2022-12-23T10:42:29.678Z,98697.69
2022-12-23T10:45:05.334Z,98690.66
2022-12-23T10:47:47.193Z,98690.72
2022-12-23T10:50:35.994Z,98688.41
2022-12-23T10:53:10.161Z,98679.00
2022-12-23T10:55:38.701Z,98685.34
2022-12-23T10:58:11.381Z,98687.34
2022-12-23T11:00:41.209Z,98692.53
2022-12-23T11:03:17.790Z,98689.03
2022-12-23T11:05:46.658Z,98687.50
2022-12-23T11:08:13.420Z,98677.72
2022-12-23T11:10:40.257Z,98678.59
2022-12-23T11:13:06.924Z,98672.34
2022-12-23T11:15:35.197Z,98662.16
2022-12-23T11:18:22.130Z,98661.44
2022-12-23T11:21:04.239Z,98671.69
2022-12-23T11:23:35.157Z,98663.06
2022-12-23T11:26:07.760Z,98657.59
2022-12-23T11:28:38.312Z,98652.53
2022-12-23T11:31:12.266Z,98660.78
2022-12-23T11:33:53.006Z,98658.44
2022-12-23T11:36:27.775Z,98668.28
2022-12-23T11:39:00.052Z,98656.13
2022-12-23T11:41:44.807Z,98640.81
2022-12-23T11:44:26.483Z,98635.34
2022-12-23T11:46:53.599Z,98639.31
2022-12-23T11:49:23.108Z,98647.22
2022-12-23T11:52:02.681Z,98643.31
2022-12-23T11:54:29.955Z,98638.56
2022-12-23T11:56:58.242Z,98642.91
2022-12-23T11:59:40.721Z,98639.78
2022-12-23T12:02:20.536Z,98639.78
2022-12-23T12:04:58.078Z,98645.66
2022-12-23T12:07:26.130Z,98653.94
2022-12-23T12:09:56.654Z,98644.47
2022-12-23T12:12:23.680Z,98642.88
2022-12-23T12:14:56.995Z,98666.47
2022-12-23T12:17:32.787Z,98651.13
2022-12-23T12:20:14.693Z,98634.25
2022-12-23T12:22:59.493Z,98674.00
2022-12-23T12:25:44.348Z,98690.13
2022-12-23T12:28:15.759Z,98673.66
2022-12-23T12:30:57.852Z,98667.81
2022-12-23T12:33:31.872Z,98668.66
2022-12-23T12:36:12.799Z,98668.66
2022-12-23T12:38:48.402Z,98661.59
2022-12-23T12:41:31.288Z,98666.75
2022-12-23T12:44:26.273Z,98675.00
2022-12-23T12:47:44.867Z,98690.78
2022-12-23T12:50:12.265Z,98680.25
2022-12-23T12:52:42.902Z,98685.88
2022-12-23T12:55:28.364Z,98670.22
2022-12-23T12:57:55.631Z,98678.13
2022-12-23T13:00:25.182Z,98681.69
2022-12-23T13:03:11.442Z,98685.22
2022-12-23T13:09:42.726Z,98686.88
2022-12-23T13:16:35.296Z,98668.75
2022-12-23T13:23:43.359Z,98667.09
2022-12-23T13:30:38.322Z,98671.56
2022-12-23T13:38:11.529Z,98681.44
2022-12-23T13:41:30.281Z,98674.31
2022-12-23T13:44:18.918Z,98693.22
2022-12-23T13:47:59.672Z,98695.59
2022-12-23T13:51:12.448Z,98703.81
2022-12-23T13:58:18.795Z,98704.16
2022-12-23T14:05:58.224Z,98728.16
2022-12-23T14:08:46.237Z,98738.78
2022-12-23T14:11:34.228Z,98739.16
2022-12-23T14:18:44.890Z,98756.09
2022-12-23T14:21:47.030Z,98759.66
2022-12-23T14:25:04.623Z,98763.22
2022-12-23T14:28:16.082Z,98773.84
2022-12-23T14:35:22.789Z,98780.22
2022-12-23T14:38:15.746Z,98790.91
2022-12-23T14:41:25.816Z,98791.66
2022-12-23T14:44:41.019Z,98787.69
2022-12-23T14:47:30.562Z,98788.44
2022-12-23T14:50:32.753Z,98799.41
2022-12-23T14:57:27.703Z,98789.50
2022-12-23T15:04:43.880Z,98804.88
2022-12-23T15:07:36.542Z,98810.41
2022-12-23T15:10:25.604Z,98811.19
2022-12-23T15:17:31.946Z,98822.91
2022-12-23T15:20:23.556Z,98822.88
2022-12-23T15:27:29.691Z,98841.34
2022-12-23T15:34:24.658Z,98849.81
2022-12-23T15:37:15.840Z,98854.09
2022-12-23T15:44:20.518Z,98861.03
2022-12-23T15:51:57.705Z,98864.00
2022-12-23T15:58:42.633Z,98878.84
2022-12-23T16:10:23.001Z,98894.00
2022-12-23T16:13:18.337Z,98899.81
2022-12-23T16:16:39.068Z,98908.41
2022-12-23T16:23:32.895Z,98909.13
2022-12-23T16:26:21.421Z,98911.09
2022-12-23T16:29:10.318Z,98926.44
2022-12-23T16:40:14.318Z,98927.91
2022-12-23T16:43:09.739Z,98933.38
2022-12-23T16:49:33.424Z,98937.22
2022-12-23T16:52:24.738Z,98930.94
2022-12-23T16:55:16.797Z,98928.19
2022-12-23T17:02:21.376Z,98925.38
2022-12-23T17:05:15.433Z,98931.22
2022-12-23T17:11:47.734Z,98933.94
2022-12-23T17:14:21.281Z,98937.03
2022-12-23T17:16:49.050Z,98920.53
2022-12-23T17:19:19.283Z,98926.03
2022-12-23T17:21:58.046Z,98926.03
2022-12-23T17:24:26.894Z,98931.13
2022-12-23T17:31:08.728Z,98947.22
2022-12-23T17:38:01.801Z,98958.22
2022-12-23T17:40:50.274Z,98955.81
2022-12-23T17:43:37.214Z,98975.53
2022-12-23T17:46:21.528Z,98980.31
2022-12-23T17:52:38.791Z,98986.66
2022-12-23T17:55:09.535Z,98996.56
2022-12-23T17:57:36.148Z,99010.41
2022-12-23T18:00:31.886Z,99005.72
2022-12-23T18:07:18.375Z,99017.81
2022-12-23T18:09:45.105Z,99016.56
2022-12-23T18:16:01.957Z,99018.78
2022-12-23T18:22:59.895Z,99020.09
2022-12-23T18:25:46.916Z,99021.56
2022-12-23T18:36:45.725Z,99033.88
2022-12-23T18:39:32.724Z,99037.00
2022-12-23T18:42:20.395Z,99041.63
2022-12-23T18:45:41.902Z,99040.81
2022-12-23T18:49:10.975Z,99056.53
2022-12-23T18:52:45.957Z,99057.25
2022-12-23T18:55:13.415Z,99055.75
2022-12-23T18:58:38.059Z,99054.50
2022-12-23T19:01:04.818Z,99057.59
2022-12-23T19:03:32.620Z,99060.72
2022-12-23T19:06:06.748Z,99062.25
2022-12-23T19:08:35.359Z,99064.56
2022-12-23T19:11:08.718Z,99092.78
2022-12-23T19:13:35.361Z,99082.06
2022-12-23T19:16:02.130Z,99084.38
2022-12-23T19:18:28.855Z,99085.88
2022-12-23T19:20:55.569Z,99087.41
2022-12-23T19:23:22.200Z,99086.16
2022-12-23T19:25:54.816Z,99086.53
2022-12-23T19:32:15.574Z,99087.41
2022-12-23T19:34:42.233Z,99085.25
2022-12-23T19:37:08.983Z,99090.09
2022-12-23T19:43:26.248Z,99080.63
2022-12-23T19:46:00.040Z,99088.19
2022-12-23T19:48:27.808Z,99083.91
2022-12-23T19:50:57.493Z,99088.69
2022-12-23T19:53:24.350Z,99089.50
2022-12-23T19:56:13.569Z,99099.03
2022-12-23T19:59:00.565Z,99100.34
2022-12-23T20:01:47.761Z,99101.22
2022-12-23T20:08:47.165Z,99117.56
2022-12-23T20:15:25.065Z,99126.03
2022-12-23T20:18:12.012Z,99126.91
2022-12-23T20:29:20.686Z,99118.50
2022-12-23T20:32:18.937Z,99116.53
2022-12-23T20:34:45.649Z,99119.72
2022-12-23T20:37:35.246Z,99130.75
2022-12-23T20:40:02.096Z,99135.44
2022-12-23T20:47:49.915Z,99147.19
2022-12-23T20:57:57.357Z,99150.66
2022-12-23T21:00:24.234Z,99145.53
2022-12-23T21:06:52.202Z,99169.00
2022-12-23T21:09:39.203Z,99170.91
2022-12-23T21:12:26.675Z,99170.00
2022-12-23T21:15:14.351Z,99176.25
2022-12-23T21:18:01.307Z,99188.84
2022-12-23T21:20:48.631Z,99192.03
2022-12-23T21:23:40.799Z,99188.50
2022-12-23T21:34:39.803Z,99180.25
2022-12-23T21:41:30.521Z,99187.00
2022-12-23T21:44:18.169Z,99203.13
2022-12-23T21:47:05.335Z,99197.63
2022-12-23T21:53:56.652Z,99216.47
2022-12-23T21:56:44.032Z,99206.97
2022-12-23T21:59:34.930Z,99212.41
2022-12-23T22:06:38.557Z,99228.91
2022-12-23T22:13:50.886Z,99239.13
2022-12-23T22:16:20.848Z,99240.31
2022-12-23T22:18:48.031Z,99246.59
2022-12-23T22:24:56.354Z,99261.16
2022-12-23T22:31:27.376Z,99280.78
2022-12-23T22:33:54.082Z,99280.00
2022-12-23T22:43:52.246Z,99287.81
2022-12-23T22:46:19.249Z,99296.06
2022-12-23T22:48:46.719Z,99309.03
2022-12-23T22:51:24.952Z,99300.34
2022-12-23T22:53:52.295Z,99303.91
2022-12-23T23:04:02.019Z,99323.06
2022-12-23T23:10:45.961Z,99310.41
2022-12-23T23:13:12.579Z,99318.91
2022-12-23T23:23:40.706Z,99304.56
2022-12-23T23:27:11.907Z,99325.22
2022-12-23T23:33:34.672Z,99344.66
2022-12-23T23:44:02.476Z,99364.13
2022-12-23T23:47:40.787Z,99351.47
2022-12-23T23:54:18.355Z,99361.00
